YPTN

Tindal Airport

Airport
ICAO code
YPTN
IATA Code
KTR
Summary
ICAO Region
APAC
ICAO Territory
Location

Tindal, Northern Territory

Serving
Katherine
Elevation
443 ft
Coordinates
14° 31' 16" S , 132° 22' 41" E
Metar
YPTN 180500Z 09010KT CAVOK 31/08 Q1013

Airport map

Aerial View

SKYbrary Partners:

Safety knowledge contributed by: